Time;durP1;ratioP1;P1;durP2;ratioP2;P2;SDS_P1;SDS_P2;PMS_P1;PMS_P2;Temp;Humidity;BMP_temperature;BMP_pressure;BME280_temperature;BME280_humidity;BME280_pressure;Samples;Min_cycle;Max_cycle;Signal;HPM_P1;HPM_P2
2023/10/28 00:00:43;;;;;;;54.95;5.10;;;;;;;9.45;100.00;97085.44;5040858;28;20029;-92
2023/10/28 00:03:09;;;;;;;123.03;6.68;;;;;;;9.48;100.00;97085.00;5053185;28;20049;-92
2023/10/28 00:05:35;;;;;;;101.40;6.85;;;;;;;9.46;100.00;97084.41;5055055;28;20036;-92
2023/10/28 00:08:04;;;;;;;84.20;5.93;;;;;;;9.48;100.00;97082.34;5038128;28;20082;-93
2023/10/28 00:10:31;;;;;;;46.70;5.65;;;;;;;9.49;100.00;97088.44;5068593;28;20040;-92
2023/10/28 00:12:57;;;;;;;42.65;5.47;;;;;;;9.50;100.00;97085.59;5038389;28;20551;-93
2023/10/28 00:15:24;;;;;;;18.02;5.45;;;;;;;9.53;100.00;97090.41;5030611;28;20037;-91
2023/10/28 00:17:50;;;;;;;21.77;5.68;;;;;;;9.53;100.00;97085.16;5049137;28;20033;-90
2023/10/28 00:20:17;;;;;;;16.27;5.35;;;;;;;9.53;100.00;97082.50;5065673;28;20028;-92
2023/10/28 00:22:47;;;;;;;19.50;5.60;;;;;;;9.58;100.00;97087.13;5048798;28;20044;-93
2023/10/28 00:25:15;;;;;;;34.17;6.03;;;;;;;9.53;100.00;97077.22;5033987;28;20039;-92
2023/10/28 00:27:41;;;;;;;25.45;5.80;;;;;;;9.53;100.00;97087.78;5053366;28;20059;-93
2023/10/28 00:30:09;;;;;;;33.22;5.68;;;;;;;9.53;100.00;97082.50;5056066;28;20556;-92
2023/10/28 00:32:38;;;;;;;19.10;5.15;;;;;;;9.52;100.00;97080.88;5048793;28;20149;-92
2023/10/28 00:35:08;;;;;;;28.25;5.47;;;;;;;9.52;100.00;97074.81;5053710;28;20185;-94
2023/10/28 00:37:37;;;;;;;33.83;5.43;;;;;;;9.58;100.00;97076.56;5037689;28;20033;-82
2023/10/28 00:40:06;;;;;;;33.28;5.57;;;;;;;9.56;100.00;97075.97;5051374;28;20028;-91
2023/10/28 00:42:35;;;;;;;47.58;4.75;;;;;;;9.54;100.00;97070.94;5046255;28;20024;-91
2023/10/28 00:45:06;;;;;;;78.78;4.93;;;;;;;9.57;100.00;97063.63;5062593;28;20473;-91
2023/10/28 00:47:35;;;;;;;94.38;5.45;;;;;;;9.48;100.00;97060.44;5037087;28;20043;-93
2023/10/28 00:50:06;;;;;;;122.88;5.82;;;;;;;9.46;100.00;97063.31;5049000;28;20119;-92
2023/10/28 00:52:32;;;;;;;95.00;4.95;;;;;;;9.43;100.00;97067.19;5068128;28;20036;-92
2023/10/28 00:54:58;;;;;;;84.45;4.07;;;;;;;9.43;100.00;97063.75;5046054;28;20175;-91
2023/10/28 00:57:26;;;;;;;48.00;3.97;;;;;;;9.44;100.00;97060.13;5050277;28;20044;-91
2023/10/28 00:59:53;;;;;;;70.22;4.07;;;;;;;9.46;100.00;97060.69;5052902;28;20036;-93
2023/10/28 01:02:19;;;;;;;39.45;3.75;;;;;;;9.42;100.00;97067.44;5047872;28;20127;-94
2023/10/28 01:04:45;;;;;;;120.47;5.30;;;;;;;9.37;100.00;97057.53;5052203;28;20032;-92
2023/10/28 01:07:10;;;;;;;120.80;5.25;;;;;;;9.35;100.00;97049.03;5051428;28;20056;-92
2023/10/28 01:09:47;;;;;;;172.65;6.35;;;;;;;9.39;100.00;97052.06;5054503;28;20055;-92
2023/10/28 01:12:14;;;;;;;127.10;6.10;;;;;;;9.33;100.00;97051.13;5057353;28;20511;-94
2023/10/28 01:14:43;;;;;;;123.22;5.57;;;;;;;9.36;100.00;97041.94;5036853;28;20024;-94
2023/10/28 01:17:13;;;;;;;67.88;4.47;;;;;;;9.33;100.00;97045.03;5035119;28;20128;-93
2023/10/28 01:19:39;;;;;;;52.65;3.92;;;;;;;9.34;100.00;97046.63;5063768;28;20098;-91
2023/10/28 01:22:06;;;;;;;83.07;4.85;;;;;;;9.33;100.00;97042.41;5046546;28;20051;-90
2023/10/28 01:24:34;;;;;;;40.50;3.88;;;;;;;9.32;100.00;97035.53;5051234;28;20033;-93
2023/10/28 01:27:01;;;;;;;17.67;3.72;;;;;;;9.35;100.00;97035.06;5050975;28;20032;-93
2023/10/28 01:29:28;;;;;;;28.23;4.43;;;;;;;9.35;100.00;97040.34;5048574;28;20044;-93
2023/10/28 01:31:55;;;;;;;24.33;4.60;;;;;;;9.35;100.00;97041.13;5050372;28;20507;-92
2023/10/28 01:34:22;;;;;;;21.52;4.80;;;;;;;9.35;100.00;97046.41;5045171;28;20029;-93
2023/10/28 01:36:49;;;;;;;59.60;4.72;;;;;;;9.35;100.00;97035.06;5038013;28;20051;-95
2023/10/28 01:39:15;;;;;;;84.65;4.65;;;;;;;9.34;100.00;97033.44;5050642;28;20048;-95
2023/10/28 01:41:42;;;;;;;59.03;4.63;;;;;;;9.33;100.00;97039.75;5034716;28;20033;-92
2023/10/28 01:44:08;;;;;;;30.73;4.13;;;;;;;9.34;100.00;97042.16;5020283;28;20485;-92
2023/10/28 01:46:34;;;;;;;59.95;4.50;;;;;;;9.34;100.00;97036.91;5052997;28;20097;-92
2023/10/28 01:48:59;;;;;;;80.35;4.53;;;;;;;9.35;100.00;97035.06;5038529;28;20028;-94
2023/10/28 01:51:26;;;;;;;79.72;4.80;;;;;;;9.35;100.00;97033.22;5051347;28;20045;-93
2023/10/28 01:53:52;;;;;;;98.50;6.03;;;;;;;9.36;100.00;97034.84;5053895;28;20040;-93
2023/10/28 01:56:17;;;;;;;22.50;4.00;;;;;;;9.33;100.00;97023.94;5051892;28;20525;-96
2023/10/28 01:58:43;;;;;;;81.65;6.10;;;;;;;9.35;100.00;97019.28;5026449;28;20468;-94
2023/10/28 02:01:09;;;;;;;74.97;4.72;;;;;;;9.36;100.00;97026.94;5046692;28;20032;-90
2023/10/28 02:03:35;;;;;;;70.63;4.55;;;;;;;9.34;100.00;97025.53;5030553;28;20436;-91
2023/10/28 02:06:01;;;;;;;124.18;6.30;;;;;;;9.31;100.00;97021.53;5020625;28;20044;-93
2023/10/28 02:08:26;;;;;;;113.10;6.05;;;;;;;9.33;100.00;97030.03;5026492;28;20097;-93
2023/10/28 02:10:52;;;;;;;70.30;5.05;;;;;;;9.33;100.00;97021.31;5052464;28;20059;-92
2023/10/28 02:13:19;;;;;;;118.05;5.82;;;;;;;9.30;100.00;97019.94;5070588;28;20044;-94
2023/10/28 02:15:48;;;;;;;136.63;5.85;;;;;;;9.32;100.00;97020.50;5036536;28;20036;-90
2023/10/28 02:18:17;;;;;;;37.67;3.67;;;;;;;9.25;100.00;97019.78;5022624;28;20044;-91
2023/10/28 02:20:43;;;;;;;89.47;5.22;;;;;;;9.24;100.00;97021.59;5059033;28;20035;-92
2023/10/28 02:23:09;;;;;;;99.53;5.28;;;;;;;9.25;100.00;97019.78;5050358;28;20037;-92
2023/10/28 02:25:35;;;;;;;136.35;6.05;;;;;;;9.29;100.00;97020.94;5063928;28;20104;-93
2023/10/28 02:28:01;;;;;;;127.80;6.07;;;;;;;9.27;100.00;97013.25;5036746;28;20131;-94
2023/10/28 02:30:26;;;;;;;100.78;4.43;;;;;;;9.27;100.00;97013.25;5038914;28;20173;-94
2023/10/28 02:32:54;;;;;;;124.57;6.35;;;;;;;9.28;100.00;97012.25;5038227;28;20047;-93
2023/10/28 02:35:20;;;;;;;84.20;4.25;;;;;;;9.28;100.00;97001.72;5038803;28;20437;-92
2023/10/28 02:37:46;;;;;;;94.50;4.65;;;;;;;9.35;100.00;97006.09;5037605;28;20036;-93
2023/10/28 02:40:13;;;;;;;68.25;4.70;;;;;;;9.30;100.00;97010.19;5021444;28;20064;-93
2023/10/28 02:42:40;;;;;;;31.08;3.92;;;;;;;9.33;100.00;97002.88;5041903;28;20102;-93
2023/10/28 02:45:09;;;;;;;12.38;3.60;;;;;;;9.31;100.00;96997.81;5046992;28;20493;-93
2023/10/28 02:47:35;;;;;;;18.50;3.80;;;;;;;9.29;100.00;97000.66;5034852;28;20056;-94
2023/10/28 02:50:00;;;;;;;11.60;3.28;;;;;;;9.30;100.00;96999.63;5028383;28;20048;-90
2023/10/28 02:52:26;;;;;;;17.70;3.88;;;;;;;9.30;100.00;96997.00;5035889;28;20480;-90
2023/10/28 02:54:52;;;;;;;13.48;3.97;;;;;;;9.30;100.00;97002.28;5036101;28;20028;-92
2023/10/28 02:57:19;;;;;;;11.65;3.90;;;;;;;9.31;100.00;97003.09;5061104;28;20044;-93
2023/10/28 02:59:45;;;;;;;13.75;4.28;;;;;;;9.33;100.00;97005.50;5036023;28;20102;-93
2023/10/28 03:02:11;;;;;;;22.45;3.67;;;;;;;9.32;100.00;97002.03;5053234;28;20067;-96
2023/10/28 03:04:36;;;;;;;11.07;3.45;;;;;;;9.32;100.00;97002.03;5056531;28;20025;-94
2023/10/28 03:07:02;;;;;;;11.43;3.58;;;;;;;9.30;100.00;96997.00;5035384;28;20036;-94
2023/10/28 03:09:30;;;;;;;12.40;3.63;;;;;;;9.28;100.00;96999.06;5051942;28;20033;-94
2023/10/28 03:11:56;;;;;;;13.85;3.17;;;;;;;9.28;100.00;96991.16;5042340;28;20024;-93
2023/10/28 03:14:22;;;;;;;8.55;3.30;;;;;;;9.25;100.00;96994.22;5026434;28;20068;-93
2023/10/28 03:16:48;;;;;;;8.52;2.95;;;;;;;9.23;100.00;96996.28;5032217;28;20044;-92
2023/10/28 03:19:13;;;;;;;10.75;3.20;;;;;;;9.20;100.00;96996.72;5038508;28;20176;-90
2023/10/28 03:21:39;;;;;;;8.57;3.15;;;;;;;9.14;100.00;97000.25;5034975;28;20041;-90
2023/10/28 03:24:06;;;;;;;8.80;3.20;;;;;;;9.11;100.00;97004.09;5065804;28;20067;-93
2023/10/28 03:26:34;;;;;;;10.43;3.42;;;;;;;9.06;100.00;96998.72;5038126;28;20114;-92
2023/10/28 03:29:00;;;;;;;7.10;2.40;;;;;;;9.04;100.00;96998.94;5054248;28;20041;-93
2023/10/28 03:31:26;;;;;;;8.88;2.80;;;;;;;9.00;100.00;96994.31;5034934;28;20040;-92
2023/10/28 03:33:52;;;;;;;9.50;2.70;;;;;;;8.97;100.00;96987.66;5063129;28;20033;-93
2023/10/28 03:36:18;;;;;;;10.00;2.28;;;;;;;8.96;100.00;96991.31;5055498;28;20135;-90
2023/10/28 03:38:44;;;;;;;6.97;2.10;;;;;;;8.96;100.00;96986.06;5061202;28;20033;-90
2023/10/28 03:41:11;;;;;;;7.05;2.30;;;;;;;8.98;100.00;96993.72;5050618;28;20033;-93
2023/10/28 03:43:37;;;;;;;4.60;1.52;;;;;;;8.96;100.00;96990.50;5061469;28;20029;-92
2023/10/28 03:46:04;;;;;;;5.45;1.88;;;;;;;8.91;100.00;96993.81;5047385;28;20072;-92
2023/10/28 03:48:30;;;;;;;3.45;1.85;;;;;;;8.89;100.00;96988.75;5062320;28;20036;-93
2023/10/28 03:51:03;;;;;;;6.80;1.58;;;;;;;8.95;100.00;96979.16;5048359;28;20047;-92
2023/10/28 03:53:29;;;;;;;7.35;1.83;;;;;;;8.84;100.00;96987.81;5052684;28;20451;-88
2023/10/28 03:55:55;;;;;;;6.95;1.73;;;;;;;8.80;100.00;96996.16;5047198;28;20029;-90
2023/10/28 03:58:23;;;;;;;6.35;1.42;;;;;;;8.81;100.00;96996.94;5029625;28;20093;-92
2023/10/28 04:00:53;;;;;;;6.50;1.50;;;;;;;8.81;100.00;96987.22;5063402;28;20115;-93
2023/10/28 04:03:20;;;;;;;5.85;1.40;;;;;;;8.83;100.00;96988.81;5055901;28;20040;-93
2023/10/28 04:05:50;;;;;;;2.97;1.33;;;;;;;8.88;100.00;96995.06;5039927;28;20131;-92
2023/10/28 04:08:16;;;;;;;11.88;1.85;;;;;;;8.82;100.00;96988.03;5036229;28;20106;-93
2023/10/28 04:10:42;;;;;;;4.25;1.73;;;;;;;8.82;100.00;96982.75;5035383;28;20091;-92
2023/10/28 04:13:08;;;;;;;3.05;1.30;;;;;;;8.83;100.00;96983.53;5034387;28;20101;-92
2023/10/28 04:15:35;;;;;;;3.10;1.35;;;;;;;8.84;100.00;96983.31;5043329;28;20029;-92
2023/10/28 04:18:01;;;;;;;45.72;2.00;;;;;;;8.86;100.00;96975.22;5052232;28;20048;-92
2023/10/28 04:20:27;;;;;;;5.22;1.70;;;;;;;8.84;100.00;96969.38;5033876;28;20036;-92
2023/10/28 04:22:53;;;;;;;4.88;1.45;;;;;;;8.81;100.00;96970.59;5054702;28;20074;-93
2023/10/28 04:25:19;;;;;;;8.27;1.40;;;;;;;8.78;100.00;96973.66;5034447;28;20041;-92
2023/10/28 04:27:44;;;;;;;48.75;2.70;;;;;;;8.77;100.00;96958.91;5065927;28;20055;-92
2023/10/28 04:30:10;;;;;;;5.93;1.40;;;;;;;8.74;100.00;96968.06;5039399;28;20037;-93
2023/10/28 04:32:40;;;;;;;4.82;1.58;;;;;;;8.77;100.00;96967.63;5052595;28;20131;-92
2023/10/28 04:35:06;;;;;;;3.75;1.10;;;;;;;8.72;100.00;96964.84;5058138;28;20490;-92
2023/10/28 04:37:32;;;;;;;2.80;1.23;;;;;;;8.74;100.00;96968.06;5039056;28;20143;-93
2023/10/28 04:39:58;;;;;;;4.20;1.10;;;;;;;8.77;100.00;96964.16;5067681;28;20115;-93
2023/10/28 04:42:23;;;;;;;4.28;0.93;;;;;;;8.77;100.00;96959.72;5056754;28;20040;-93
2023/10/28 04:44:49;;;;;;;10.40;1.38;;;;;;;8.77;100.00;96956.28;5034651;28;20036;-92
2023/10/28 04:47:15;;;;;;;38.22;1.15;;;;;;;8.74;100.00;96954.91;5055673;28;20029;-92
2023/10/28 04:49:41;;;;;;;2.85;0.90;;;;;;;8.67;100.00;96960.22;5056971;28;20522;-92
2023/10/28 04:52:10;;;;;;;10.20;1.52;;;;;;;8.62;100.00;96960.06;5050288;28;20028;-92
2023/10/28 04:54:38;;;;;;;10.88;1.10;;;;;;;8.63;100.00;96971.41;5037866;28;20033;-92
2023/10/28 04:57:04;;;;;;;6.88;0.93;;;;;;;8.64;100.00;96959.84;5053300;28;20038;-92
2023/10/28 04:59:30;;;;;;;5.93;1.05;;;;;;;8.67;100.00;96967.31;5046582;28;20031;-93
2023/10/28 05:01:56;;;;;;;4.13;1.00;;;;;;;8.71;100.00;96975.59;5039410;28;20516;-93
2023/10/28 05:04:24;;;;;;;4.55;0.95;;;;;;;8.71;100.00;96980.84;5039556;28;20109;-93
2023/10/28 05:06:54;;;;;;;2.75;0.85;;;;;;;8.74;100.00;96975.16;5064947;28;20035;-93
2023/10/28 05:09:20;;;;;;;5.63;0.70;;;;;;;8.69;100.00;96966.06;5058508;28;20487;-92
2023/10/28 05:11:48;;;;;;;8.02;1.00;;;;;;;8.69;100.00;96968.69;5054883;28;20055;-92
2023/10/28 05:14:14;;;;;;;5.35;0.80;;;;;;;8.67;100.00;96956.78;5042889;28;20164;-93
2023/10/28 05:16:40;;;;;;;4.72;1.30;;;;;;;8.69;100.00;96957.38;5038496;28;20504;-93
2023/10/28 05:19:06;;;;;;;1.60;0.70;;;;;;;8.67;100.00;96964.66;5041899;28;20082;-88
2023/10/28 05:21:32;;;;;;;3.95;1.00;;;;;;;8.67;100.00;96965.50;5044451;28;20123;-93
2023/10/28 05:23:58;;;;;;;2.47;0.60;;;;;;;8.64;100.00;96963.28;5064918;28;20040;-91
2023/10/28 05:26:23;;;;;;;4.88;1.40;;;;;;;8.66;100.00;96971.75;5055477;28;20059;-90
2023/10/28 05:28:51;;;;;;;5.28;1.10;;;;;;;8.67;100.00;96965.50;5053254;28;20024;-90
2023/10/28 05:31:17;;;;;;;3.10;0.68;;;;;;;8.72;100.00;96962.19;5050473;28;20040;-93
2023/10/28 05:33:42;;;;;;;3.60;0.80;;;;;;;8.72;100.00;96971.91;5059285;28;20357;-93
2023/10/28 05:36:08;;;;;;;6.38;0.57;;;;;;;8.73;100.00;96976.97;5059564;28;20055;-93
2023/10/28 05:38:34;;;;;;;5.07;0.60;;;;;;;8.72;100.00;96979.81;5047983;28;20392;-92
2023/10/28 05:41:00;;;;;;;3.80;1.20;;;;;;;8.72;100.00;96972.72;5056683;28;20081;-92
2023/10/28 05:43:25;;;;;;;23.63;0.85;;;;;;;8.72;100.00;96967.47;5037058;28;20396;-93
2023/10/28 05:45:51;;;;;;;3.97;1.05;;;;;;;8.71;100.00;96973.75;5051948;28;20039;-91
2023/10/28 05:48:17;;;;;;;2.50;0.90;;;;;;;8.68;100.00;96974.97;5031912;28;20040;-90
2023/10/28 05:50:42;;;;;;;31.83;1.10;;;;;;;8.66;100.00;96976.25;5069394;28;20495;-93
2023/10/28 05:53:08;;;;;;;7.95;0.88;;;;;;;8.61;100.00;96976.88;5041290;28;20036;-94
2023/10/28 05:55:34;;;;;;;12.02;1.17;;;;;;;8.56;100.00;96982.81;5053787;28;20110;-93
2023/10/28 05:57:59;;;;;;;7.75;0.70;;;;;;;8.54;100.00;96981.38;5038231;28;20028;-93
2023/10/28 06:00:25;;;;;;;2.85;1.00;;;;;;;8.53;100.00;96979.78;5048961;28;20047;-93
2023/10/28 06:02:51;;;;;;;8.88;0.68;;;;;;;8.52;100.00;96976.31;5054880;28;20036;-93
2023/10/28 06:05:17;;;;;;;5.55;0.60;;;;;;;8.58;100.00;96979.16;5035736;28;20049;-92
2023/10/28 06:07:47;;;;;;;2.15;0.65;;;;;;;8.65;100.00;96987.78;5060777;28;20044;-92
2023/10/28 06:10:14;;;;;;;5.70;1.60;;;;;;;8.74;100.00;96989.13;5035816;28;20094;-93
2023/10/28 06:12:39;;;;;;;9.13;0.80;;;;;;;8.76;100.00;96979.16;5057886;28;20036;-93
2023/10/28 06:15:06;;;;;;;5.97;0.80;;;;;;;8.79;100.00;96984.00;5037166;28;20035;-93
2023/10/28 06:17:31;;;;;;;8.00;1.05;;;;;;;8.84;100.00;96977.28;5035127;28;20040;-93
2023/10/28 06:19:59;;;;;;;7.15;1.33;;;;;;;8.88;100.00;96975.81;5057062;28;20499;-92
2023/10/28 06:22:24;;;;;;;12.80;1.40;;;;;;;8.90;100.00;96987.72;5058075;28;20542;-92
2023/10/28 06:24:50;;;;;;;11.10;1.45;;;;;;;8.93;100.00;96989.91;5056217;28;20036;-92
2023/10/28 06:27:16;;;;;;;7.68;1.17;;;;;;;8.99;100.00;96984.78;5037682;28;20044;-93
2023/10/28 06:29:41;;;;;;;14.82;2.28;;;;;;;9.01;100.00;96983.56;5037805;28;20131;-92
2023/10/28 06:32:08;;;;;;;9.68;1.20;;;;;;;9.06;100.00;96981.06;5068063;28;20029;-92
2023/10/28 06:34:34;;;;;;;4.65;0.63;;;;;;;9.07;100.00;96984.50;5035292;28;20028;-92
2023/10/28 06:37:00;;;;;;;13.25;1.40;;;;;;;9.06;100.00;96975.78;5031837;28;20024;-93
2023/10/28 06:39:26;;;;;;;13.30;0.95;;;;;;;9.05;100.00;96984.72;5047776;28;20035;-93
2023/10/28 06:41:52;;;;;;;10.07;1.05;;;;;;;9.03;100.00;96986.00;5053579;28;20469;-92
2023/10/28 06:44:23;;;;;;;6.60;0.90;;;;;;;9.02;100.00;96989.63;5055491;28;20032;-92
2023/10/28 06:46:49;;;;;;;16.83;1.38;;;;;;;9.02;100.00;96982.53;5059386;28;20039;-93
2023/10/28 06:49:16;;;;;;;9.73;1.35;;;;;;;9.01;100.00;96988.03;5056068;28;20035;-92
2023/10/28 06:51:43;;;;;;;10.73;0.93;;;;;;;9.02;100.00;96985.16;5071663;28;20052;-92
2023/10/28 06:54:09;;;;;;;6.70;1.40;;;;;;;9.03;100.00;96983.34;5054030;28;20044;-90
2023/10/28 06:56:35;;;;;;;9.15;2.03;;;;;;;9.02;100.00;96981.72;5063386;28;20071;-90
2023/10/28 06:59:01;;;;;;;15.35;2.15;;;;;;;9.07;100.00;96987.16;5048879;28;20479;-92
2023/10/28 07:01:27;;;;;;;13.48;1.67;;;;;;;9.07;100.00;96997.69;5072902;28;20032;-93
2023/10/28 07:03:52;;;;;;;9.68;1.48;;;;;;;9.12;100.00;96997.03;5057723;28;20540;-93
2023/10/28 07:06:18;;;;;;;13.63;1.25;;;;;;;9.13;100.00;96999.44;5042748;28;20389;-93
2023/10/28 07:08:45;;;;;;;17.95;1.58;;;;;;;9.13;100.00;96995.97;5054697;28;20043;-92
2023/10/28 07:11:12;;;;;;;8.13;1.05;;;;;;;9.14;100.00;96994.97;5054657;28;20437;-93
2023/10/28 07:13:38;;;;;;;12.40;1.98;;;;;;;9.14;100.00;96990.50;5071760;28;20032;-92
2023/10/28 07:16:04;;;;;;;12.80;2.45;;;;;;;9.09;100.00;96994.81;5049582;28;20028;-93
2023/10/28 07:18:31;;;;;;;14.98;1.40;;;;;;;9.06;100.00;96996.09;5061076;28;20435;-93
2023/10/28 07:20:57;;;;;;;17.15;1.33;;;;;;;9.04;100.00;96998.94;5063886;28;20119;-90
2023/10/28 07:23:26;;;;;;;14.88;1.20;;;;;;;9.04;100.00;96996.31;5053364;28;20066;-90
2023/10/28 07:25:53;;;;;;;9.93;1.30;;;;;;;9.09;100.00;97006.19;5057287;28;20029;-93
2023/10/28 07:28:20;;;;;;;6.32;1.15;;;;;;;9.09;100.00;96998.28;5040922;28;20044;-93
2023/10/28 07:30:52;;;;;;;13.23;1.25;;;;;;;9.09;100.00;97000.09;5056599;28;20033;-93
2023/10/28 07:33:19;;;;;;;14.30;1.45;;;;;;;9.03;100.00;96999.94;5074858;28;20047;-93
2023/10/28 07:35:48;;;;;;;10.85;1.40;;;;;;;9.04;100.00;96998.94;5041632;28;20031;-93
2023/10/28 07:38:15;;;;;;;29.17;1.75;;;;;;;9.03;100.00;96993.88;5038643;28;20039;-94
2023/10/28 07:40:41;;;;;;;22.48;1.08;;;;;;;8.99;100.00;96992.69;5090378;28;20034;-93
2023/10/28 07:43:10;;;;;;;7.45;1.20;;;;;;;9.00;100.00;96989.84;5062619;28;20093;-92
2023/10/28 07:45:36;;;;;;;17.73;1.65;;;;;;;9.01;100.00;96990.66;5053053;28;20086;-93
2023/10/28 07:48:02;;;;;;;14.68;1.65;;;;;;;9.04;100.00;96987.59;5067326;28;20086;-81
2023/10/28 07:50:28;;;;;;;9.40;1.02;;;;;;;9.04;100.00;96992.84;5074678;28;20058;-93
2023/10/28 07:52:55;;;;;;;16.58;1.40;;;;;;;9.03;100.00;96993.88;5039560;28;20487;-93
2023/10/28 07:55:20;;;;;;;7.28;1.05;;;;;;;9.02;100.00;96993.06;5050394;28;20035;-94
2023/10/28 07:57:46;;;;;;;23.23;2.38;;;;;;;9.04;100.00;96998.13;5057524;28;20085;-93
2023/10/28 08:00:13;;;;;;;13.30;1.48;;;;;;;9.06;100.00;96988.97;5075425;28;20031;-94
2023/10/28 08:02:44;;;;;;;18.08;1.27;;;;;;;9.09;100.00;96990.38;5057030;28;20105;-92
2023/10/28 08:05:10;;;;;;;14.63;1.35;;;;;;;9.06;100.00;96988.97;5041710;28;20127;-93
2023/10/28 08:07:37;;;;;;;9.48;1.15;;;;;;;9.05;100.00;96995.25;5071529;28;20063;-93
2023/10/28 08:10:04;;;;;;;3.83;0.60;;;;;;;9.05;100.00;96987.38;5058923;28;20028;-93
2023/10/28 08:12:30;;;;;;;10.30;1.70;;;;;;;9.04;100.00;96983.13;5050887;28;20123;-94
2023/10/28 08:14:56;;;;;;;12.20;1.30;;;;;;;9.06;100.00;96988.19;5055848;28;20039;-93
2023/10/28 08:17:22;;;;;;;17.75;1.42;;;;;;;9.07;100.00;96989.78;5070163;28;20031;-93
2023/10/28 08:19:48;;;;;;;14.20;1.50;;;;;;;9.08;100.00;96987.97;5041427;28;20035;-93
2023/10/28 08:22:14;;;;;;;18.25;1.77;;;;;;;9.13;100.00;96988.91;5056593;28;20046;-93
2023/10/28 08:24:41;;;;;;;13.13;1.30;;;;;;;9.23;100.00;96993.66;5055577;28;20028;-90
2023/10/28 08:27:09;;;;;;;12.50;1.80;;;;;;;9.33;100.00;96989.69;5028296;28;20047;-90
2023/10/28 08:29:35;;;;;;;12.02;1.85;;;;;;;9.45;100.00;96993.19;5015496;28;20037;-93
2023/10/28 08:32:01;;;;;;;17.20;1.30;;;;;;;9.48;100.00;96995.38;5025346;28;20041;-93
2023/10/28 08:34:26;;;;;;;11.30;1.35;;;;;;;9.53;100.00;96992.88;5013171;28;20033;-93
2023/10/28 08:36:52;;;;;;;14.00;1.95;;;;;;;9.59;100.00;96990.38;5037727;28;20048;-92
2023/10/28 08:39:19;;;;;;;17.50;1.60;;;;;;;9.63;100.00;96994.97;5018213;28;20127;-93
2023/10/28 08:41:48;;;;;;;10.30;1.40;;;;;;;9.76;100.00;96990.53;5015200;28;20745;-91
2023/10/28 08:44:17;;;;;;;14.30;1.77;;;;;;;9.86;100.00;97000.56;5030997;28;20390;-92
2023/10/28 08:46:45;;;;;;;16.88;2.03;;;;;;;9.93;100.00;96995.97;5027634;28;20025;-93
2023/10/28 08:49:17;;;;;;;13.18;1.50;;;;;;;10.03;100.00;97003.34;5015537;28;20040;-92
2023/10/28 08:51:48;;;;;;;13.38;1.83;;;;;;;10.12;100.00;97001.16;5019499;28;20105;-92
2023/10/28 08:54:15;;;;;;;13.95;1.70;;;;;;;10.13;100.00;96989.59;5051289;28;20068;-93
2023/10/28 08:56:43;;;;;;;16.88;1.90;;;;;;;10.16;100.00;97003.13;5015577;28;20120;-93
2023/10/28 08:59:10;;;;;;;13.55;1.60;;;;;;;10.17;100.00;97007.41;5030525;28;20049;-94
2023/10/28 09:01:39;;;;;;;16.27;1.50;;;;;;;10.21;100.00;97006.94;5033456;28;20052;-92
2023/10/28 09:04:05;;;;;;;15.13;1.48;;;;;;;10.25;100.00;97008.91;5030198;28;20038;-93
2023/10/28 09:06:34;;;;;;;10.23;1.52;;;;;;;10.32;100.00;97008.75;5028383;28;20505;-91
2023/10/28 09:09:00;;;;;;;11.30;1.55;;;;;;;10.29;100.00;97011.88;5033682;28;20029;-91
2023/10/28 09:11:27;;;;;;;7.95;1.00;;;;;;;10.34;100.00;97013.81;5024999;28;20080;-89
2023/10/28 09:13:53;;;;;;;14.98;1.98;;;;;;;10.37;100.00;97023.91;5032142;28;20037;-90
2023/10/28 09:16:19;;;;;;;6.65;0.95;;;;;;;10.39;100.00;97027.97;5033216;28;20040;-93
2023/10/28 09:18:44;;;;;;;12.57;1.52;;;;;;;10.42;100.00;97024.06;5061934;28;20040;-91
2023/10/28 09:21:11;;;;;;;10.95;1.45;;;;;;;10.48;100.00;97023.16;5025517;28;20040;-94
2023/10/28 09:23:38;;;;;;;10.20;1.35;;;;;;;10.54;100.00;97024.09;5046681;28;20473;-91
2023/10/28 09:26:08;;;;;;;11.00;1.27;;;;;;;10.67;100.00;97025.72;5020581;28;20044;-93
2023/10/28 09:28:34;;;;;;;9.15;1.02;;;;;;;10.71;100.00;97034.78;5051494;28;20036;-92
2023/10/28 09:31:00;;;;;;;8.23;1.00;;;;;;;10.79;100.00;97028.34;5051600;28;20075;-92
2023/10/28 09:33:27;;;;;;;11.55;1.40;;;;;;;10.88;100.00;97031.44;5053999;28;20066;-92
2023/10/28 09:35:53;;;;;;;10.07;1.23;;;;;;;10.97;100.00;97039.81;5036010;28;20028;-91
2023/10/28 09:38:20;;;;;;;14.25;1.67;;;;;;;11.08;100.00;97040.84;5036299;28;20098;-90
2023/10/28 09:40:49;;;;;;;7.47;1.40;;;;;;;11.18;100.00;97038.41;5044205;28;20037;-92
2023/10/28 09:43:15;;;;;;;10.27;1.42;;;;;;;11.29;100.00;97039.44;5046855;28;20033;-93
2023/10/28 09:45:50;;;;;;;16.42;1.90;;;;;;;11.40;100.00;97048.38;5066836;28;20029;-94
2023/10/28 09:48:17;;;;;;;13.95;1.08;;;;;;;11.36;100.00;97042.75;5036195;28;20028;-94
2023/10/28 09:50:53;;;;;;;7.70;1.00;;;;;;;11.43;100.00;97036.50;5041599;28;20070;-92
2023/10/28 09:53:41;;;;;;;17.23;1.42;;;;;;;11.43;100.00;97036.50;5044806;28;20036;-91
2023/10/28 09:56:07;;;;;;;10.10;1.20;;;;;;;11.41;100.00;97037.56;5065403;28;20032;-95
2023/10/28 09:58:51;;;;;;;9.60;1.17;;;;;;;11.53;100.00;97044.66;5051169;28;20052;-96
2023/10/28 10:01:29;;;;;;;7.40;1.15;;;;;;;11.60;100.00;97039.22;5054479;28;20083;-82
2023/10/28 10:03:54;;;;;;;12.35;1.73;;;;;;;11.63;100.00;97033.47;5061371;28;20040;-92
2023/10/28 10:06:21;;;;;;;11.43;1.48;;;;;;;11.68;100.00;97043.31;5052863;28;20070;-92
2023/10/28 10:08:49;;;;;;;11.05;1.65;;;;;;;11.73;100.00;97038.13;5037127;28;20468;-91
2023/10/28 10:11:23;;;;;;;14.48;1.60;;;;;;;11.76;100.00;97042.97;5021398;28;20036;-92
2023/10/28 10:13:49;;;;;;;12.93;1.85;;;;;;;11.78;100.00;97040.88;5025927;28;20054;-93
2023/10/28 10:16:31;;;;;;;15.57;1.75;;;;;;;11.81;100.00;97037.78;5032165;28;20184;-92
2023/10/28 10:19:03;;;;;;;14.80;2.58;;;;;;;11.73;100.00;97031.00;5064856;28;20471;-91
2023/10/28 10:21:32;;;;;;;13.75;1.52;;;;;;;11.77;100.00;97029.50;5052674;28;20036;-92
2023/10/28 10:24:04;;;;;;;11.40;1.80;;;;;;;11.86;100.00;97031.75;5033060;28;20044;-92
2023/10/28 10:26:35;;;;;;;11.88;1.60;;;;;;;11.92;100.00;97025.53;5038578;28;20456;-91
2023/10/28 10:29:03;;;;;;;14.43;1.83;;;;;;;11.98;100.00;97024.56;5045465;28;20034;-95
2023/10/28 10:31:31;;;;;;;12.80;1.55;;;;;;;12.04;100.00;97026.25;5051558;28;20040;-95
2023/10/28 10:34:09;;;;;;;14.00;1.92;;;;;;;12.19;100.00;97032.88;5052314;28;20070;-95
2023/10/28 10:36:43;;;;;;;12.50;1.75;;;;;;;12.26;100.00;97030.09;5054451;28;20040;-91
2023/10/28 10:39:11;;;;;;;14.25;2.00;;;;;;;12.22;100.00;97018.34;5051312;28;20041;-94
2023/10/28 10:41:38;;;;;;;13.93;2.03;;;;;;;12.36;100.00;97026.81;5038790;28;20132;-95
2023/10/28 10:44:34;;;;;;;12.18;1.50;;;;;;;12.43;100.00;97021.31;5034232;28;20067;-92
2023/10/28 10:47:01;;;;;;;12.60;1.83;;;;;;;12.48;100.00;97029.38;5038545;28;20094;-92
2023/10/28 10:49:30;;;;;;;10.80;1.90;;;;;;;12.53;100.00;97030.22;5054131;28;20032;-92
2023/10/28 10:51:58;;;;;;;13.40;1.98;;;;;;;12.63;100.00;97023.47;5063529;28;20032;-96
2023/10/28 10:54:29;;;;;;;14.35;1.88;;;;;;;12.71;100.00;97019.66;5049318;28;20029;-91
2023/10/28 10:56:55;;;;;;;10.98;1.30;;;;;;;12.71;100.00;97023.06;5034144;28;20037;-96
2023/10/28 10:59:20;;;;;;;10.57;1.80;;;;;;;12.72;100.00;97021.22;5033655;28;20063;-91
2023/10/28 11:01:46;;;;;;;8.38;1.60;;;;;;;12.73;100.00;97022.81;5060733;28;20063;-91
2023/10/28 11:04:12;;;;;;;9.85;1.70;;;;;;;12.77;100.00;97016.00;5047574;28;20029;-91
2023/10/28 11:06:38;;;;;;;7.38;1.17;;;;;;;12.84;100.00;97021.94;5052211;28;20493;-91
2023/10/28 11:09:05;;;;;;;17.38;1.83;;;;;;;12.81;100.00;97025.06;5032813;28;20288;-95
2023/10/28 11:11:35;;;;;;;8.80;1.27;;;;;;;12.76;100.00;97019.69;5063201;28;20029;-91
2023/10/28 11:14:04;;;;;;;15.32;1.85;;;;;;;12.83;100.00;97022.19;5043928;28;20044;-91
2023/10/28 11:16:31;;;;;;;14.43;2.45;;;;;;;12.89;100.00;97018.56;5046839;28;20035;-91
2023/10/28 11:18:57;;;;;;;11.05;1.38;;;;;;;12.93;100.00;97013.56;5049624;28;20123;-92
2023/10/28 11:21:28;;;;;;;11.55;1.83;;;;;;;13.02;100.00;97009.44;5044056;28;20040;-92
2023/10/28 11:23:54;;;;;;;11.57;1.75;;;;;;;13.09;100.00;97007.41;5050019;28;20032;-91
2023/10/28 11:26:22;;;;;;;7.72;1.00;;;;;;;13.16;100.00;97004.56;5031485;28;20124;-92